Time;durP1;ratioP1;P1;durP2;ratioP2;P2;SDS_P1;SDS_P2;PMS_P1;PMS_P2;Temp;Humidity;BMP_temperature;BMP_pressure;BME280_temperature;BME280_humidity;BME280_pressure;Samples;Min_cycle;Max_cycle;Signal;HPM_P1;HPM_P2
2022/07/10 00:01:24;;;;;;;25.73;2.47;;;16.90;99.90;;;;;;5113701;27;20187;-75
2022/07/10 00:03:50;;;;;;;4.93;2.07;;;16.80;99.90;;;;;;5113642;28;20177;-76
2022/07/10 00:06:16;;;;;;;3.00;1.70;;;16.80;99.90;;;;;;5096647;28;20225;-75
2022/07/10 00:08:45;;;;;;;3.93;1.90;;;16.80;99.90;;;;;;5111395;28;20187;-75
2022/07/10 00:11:11;;;;;;;3.27;1.80;;;16.80;99.90;;;;;;5115260;28;20472;-75
2022/07/10 00:13:37;;;;;;;2.63;1.60;;;16.80;99.90;;;;;;5096652;28;20418;-75
2022/07/10 00:16:03;;;;;;;7.30;2.30;;;16.80;99.90;;;;;;5124459;28;20175;-75
2022/07/10 00:18:29;;;;;;;4.43;2.87;;;16.80;99.90;;;;;;5099159;27;20184;-75
2022/07/10 00:20:55;;;;;;;3.20;1.83;;;16.80;99.90;;;;;;5111501;28;20183;-75
2022/07/10 00:23:20;;;;;;;3.00;1.63;;;16.80;99.90;;;;;;5126335;28;20414;-75
2022/07/10 00:25:46;;;;;;;4.07;1.67;;;16.80;99.90;;;;;;5119822;28;20621;-75
2022/07/10 00:28:12;;;;;;;6.40;2.00;;;16.80;99.90;;;;;;5118478;28;20190;-75
2022/07/10 00:30:38;;;;;;;3.43;1.77;;;16.80;99.90;;;;;;5112175;28;20187;-75
2022/07/10 00:33:04;;;;;;;2.87;1.97;;;16.80;99.90;;;;;;5111791;28;20519;-75
2022/07/10 00:35:30;;;;;;;5.73;2.20;;;16.70;99.90;;;;;;5112145;28;20168;-75
2022/07/10 00:37:56;;;;;;;4.57;2.23;;;16.70;99.90;;;;;;5122500;28;20416;-75
2022/07/10 00:40:22;;;;;;;3.90;2.30;;;16.70;99.90;;;;;;5116592;27;20672;-75
2022/07/10 00:42:47;;;;;;;4.80;2.10;;;16.60;99.90;;;;;;5114639;28;20211;-75
2022/07/10 00:45:13;;;;;;;4.33;2.20;;;16.60;99.90;;;;;;5115959;28;20453;-75
2022/07/10 00:47:39;;;;;;;3.70;2.10;;;16.60;99.90;;;;;;5116269;28;20229;-75
2022/07/10 00:50:06;;;;;;;3.40;2.00;;;16.60;99.90;;;;;;5115922;28;20185;-75
2022/07/10 00:52:35;;;;;;;5.10;2.20;;;16.70;99.90;;;;;;5115287;28;20573;-75
2022/07/10 00:55:02;;;;;;;4.20;2.13;;;16.60;99.90;;;;;;5115958;28;20414;-75
2022/07/10 00:57:28;;;;;;;3.60;2.23;;;16.70;99.90;;;;;;5115656;28;20520;-75
2022/07/10 00:59:53;;;;;;;4.77;2.20;;;16.70;99.90;;;;;;5115420;28;20958;-75
2022/07/10 01:02:19;;;;;;;4.10;2.00;;;16.70;99.90;;;;;;5113833;27;20429;-75
2022/07/10 01:04:45;;;;;;;3.70;2.30;;;16.70;99.90;;;;;;5125369;27;20252;-75
2022/07/10 01:07:11;;;;;;;4.00;2.10;;;16.70;99.90;;;;;;5136052;27;20488;-75
2022/07/10 01:09:37;;;;;;;2.90;1.90;;;16.60;99.90;;;;;;5120497;27;20180;-75
2022/07/10 01:12:04;;;;;;;6.87;2.60;;;16.60;99.90;;;;;;5114734;28;20756;-75
2022/07/10 01:14:30;;;;;;;3.03;2.03;;;16.60;99.90;;;;;;5120511;27;20667;-75
2022/07/10 01:16:58;;;;;;;3.20;2.10;;;16.60;99.90;;;;;;5131301;27;20429;-75
2022/07/10 01:19:24;;;;;;;5.13;2.60;;;16.50;99.90;;;;;;5120509;27;20420;-75
2022/07/10 01:21:49;;;;;;;4.90;2.50;;;16.50;99.90;;;;;;5119781;27;20417;-75
2022/07/10 01:24:15;;;;;;;3.47;2.20;;;16.50;99.90;;;;;;5128989;27;20681;-75
2022/07/10 01:26:42;;;;;;;3.67;2.10;;;16.60;99.90;;;;;;5128701;27;20180;-75
2022/07/10 01:29:09;;;;;;;8.37;2.27;;;16.60;99.90;;;;;;5114796;28;20198;-75
2022/07/10 01:31:35;;;;;;;6.20;2.80;;;16.50;99.90;;;;;;5114577;28;20457;-75
2022/07/10 01:34:04;;;;;;;4.57;2.17;;;16.50;99.90;;;;;;5117333;27;20440;-75
2022/07/10 01:36:30;;;;;;;3.40;2.03;;;16.40;99.90;;;;;;5101951;27;20446;-75
2022/07/10 01:38:57;;;;;;;3.50;2.57;;;16.40;99.90;;;;;;5125878;27;20413;-75
2022/07/10 01:41:23;;;;;;;6.70;3.77;;;16.30;99.90;;;;;;5118607;27;20417;-75
2022/07/10 01:43:49;;;;;;;4.70;2.40;;;16.20;99.90;;;;;;5114570;27;20418;-75
2022/07/10 01:46:16;;;;;;;4.33;2.83;;;16.20;99.90;;;;;;5126532;27;20409;-75
2022/07/10 01:48:42;;;;;;;4.80;3.00;;;16.10;99.90;;;;;;5121667;27;20451;-75
2022/07/10 01:51:10;;;;;;;3.83;2.70;;;16.00;99.90;;;;;;5129376;27;20494;-75
2022/07/10 01:53:36;;;;;;;5.80;2.97;;;16.00;99.90;;;;;;5116462;27;20887;-75
2022/07/10 01:56:05;;;;;;;6.10;3.10;;;15.90;99.90;;;;;;5126998;27;20417;-75
2022/07/10 01:58:31;;;;;;;4.43;2.80;;;15.90;99.90;;;;;;5129317;27;20413;-75
2022/07/10 02:00:57;;;;;;;4.97;2.97;;;15.90;99.90;;;;;;5111984;28;20438;-75
2022/07/10 02:06:07;;;;;;;7.40;3.30;;;15.80;99.90;;;;;;5115239;27;20258;-75
2022/07/10 02:08:32;;;;;;;5.87;3.07;;;15.80;99.90;;;;;;5114024;28;20398;-75
2022/07/10 02:10:58;;;;;;;7.10;3.70;;;15.80;99.90;;;;;;5119193;27;20203;-75
2022/07/10 02:13:27;;;;;;;11.17;3.90;;;15.70;99.90;;;;;;5111257;27;20183;-76
2022/07/10 02:15:56;;;;;;;5.43;2.80;;;15.60;99.90;;;;;;5114179;28;20176;-76
2022/07/10 02:18:22;;;;;;;7.20;3.80;;;15.60;99.90;;;;;;5113342;28;20441;-76
2022/07/10 02:20:48;;;;;;;5.57;3.20;;;15.50;99.90;;;;;;5113238;28;20493;-75
2022/07/10 02:23:14;;;;;;;6.27;3.57;;;15.40;99.90;;;;;;5112966;28;20500;-75
2022/07/10 02:25:39;;;;;;;8.20;4.30;;;15.40;99.90;;;;;;5113219;28;20180;-75
2022/07/10 02:28:05;;;;;;;5.87;3.47;;;15.40;99.90;;;;;;5113072;28;20289;-76
2022/07/10 02:30:31;;;;;;;7.73;3.27;;;15.30;99.90;;;;;;5127590;27;20186;-76
2022/07/10 02:32:57;;;;;;;7.27;4.20;;;15.30;99.90;;;;;;5133662;27;20198;-75
2022/07/10 02:35:22;;;;;;;5.97;3.93;;;15.30;99.90;;;;;;5134628;27;20181;-76
2022/07/10 02:37:48;;;;;;;5.23;3.40;;;15.30;99.90;;;;;;5108680;27;20271;-76
2022/07/10 02:40:14;;;;;;;7.37;4.50;;;15.30;99.90;;;;;;5113839;27;20163;-76
2022/07/10 02:42:40;;;;;;;11.03;4.40;;;15.30;99.90;;;;;;5135216;27;20179;-76
2022/07/10 02:45:07;;;;;;;7.30;4.27;;;15.30;99.90;;;;;;5135718;27;20412;-76
2022/07/10 02:47:32;;;;;;;5.37;3.47;;;15.30;99.90;;;;;;5136292;27;20419;-76
2022/07/10 02:49:58;;;;;;;7.00;4.20;;;15.30;99.90;;;;;;5115608;27;20511;-75
2022/07/10 02:52:23;;;;;;;6.90;4.30;;;15.30;99.90;;;;;;5121133;27;20192;-75
2022/07/10 02:54:50;;;;;;;6.97;4.47;;;15.30;99.90;;;;;;5120736;28;20535;-75
2022/07/10 02:57:16;;;;;;;8.80;5.57;;;15.30;99.90;;;;;;5121486;28;20298;-77
2022/07/10 02:59:42;;;;;;;8.13;4.70;;;15.40;99.90;;;;;;5115807;28;20445;-76
2022/07/10 03:02:07;;;;;;;13.03;6.70;;;15.40;99.90;;;;;;5115872;27;20645;-75
2022/07/10 03:04:34;;;;;;;14.53;6.53;;;15.40;99.90;;;;;;5110993;28;20196;-76
2022/07/10 03:06:59;;;;;;;13.43;7.03;;;15.40;99.90;;;;;;5120415;27;20182;-76
2022/07/10 03:09:25;;;;;;;11.30;5.90;;;15.40;99.90;;;;;;5123640;27;20499;-76
2022/07/10 03:11:51;;;;;;;11.80;5.03;;;15.40;99.90;;;;;;5108794;27;20212;-76
2022/07/10 03:14:17;;;;;;;10.50;5.83;;;15.40;99.90;;;;;;5135871;27;20229;-76
2022/07/10 03:16:43;;;;;;;7.47;4.50;;;15.30;99.90;;;;;;5119438;27;20411;-76
2022/07/10 03:19:09;;;;;;;16.20;6.40;;;15.30;99.90;;;;;;5121964;27;20179;-76
2022/07/10 03:21:34;;;;;;;11.80;6.17;;;15.20;99.90;;;;;;5109203;28;20183;-75
2022/07/10 03:24:00;;;;;;;11.23;5.90;;;15.20;99.90;;;;;;5111862;28;20692;-76
2022/07/10 03:26:26;;;;;;;12.03;6.53;;;15.10;99.90;;;;;;5113124;28;20254;-76
2022/07/10 03:28:52;;;;;;;14.73;6.87;;;15.00;99.90;;;;;;5118754;27;20632;-76
2022/07/10 03:31:17;;;;;;;17.73;6.67;;;15.00;99.90;;;;;;5125124;27;20456;-76
2022/07/10 03:33:43;;;;;;;9.07;6.50;;;15.00;99.90;;;;;;5132774;27;20178;-76
2022/07/10 03:36:09;;;;;;;12.50;7.43;;;14.90;99.90;;;;;;5113542;28;20821;-76
2022/07/10 03:38:34;;;;;;;13.57;6.70;;;14.90;99.90;;;;;;5127333;27;20190;-76
2022/07/10 03:41:00;;;;;;;16.57;6.90;;;14.90;99.90;;;;;;5111020;28;20221;-76
2022/07/10 03:43:25;;;;;;;13.63;7.70;;;14.90;99.90;;;;;;5113170;28;20245;-76
2022/07/10 03:45:51;;;;;;;12.90;7.53;;;14.90;99.90;;;;;;5112927;28;20541;-76
2022/07/10 03:48:17;;;;;;;14.07;7.43;;;15.00;99.90;;;;;;5130684;27;20171;-76
2022/07/10 03:50:43;;;;;;;11.77;8.00;;;15.00;99.90;;;;;;5116533;27;20902;-76
2022/07/10 03:53:08;;;;;;;13.60;7.90;;;15.00;99.90;;;;;;5101216;28;20258;-76
2022/07/10 03:55:34;;;;;;;16.70;8.13;;;14.90;99.90;;;;;;5112675;28;20184;-76
2022/07/10 03:58:03;;;;;;;15.33;8.83;;;14.90;99.90;;;;;;5113125;28;20172;-76
2022/07/10 04:00:32;;;;;;;15.33;8.63;;;14.90;99.90;;;;;;5112551;28;20171;-75
2022/07/10 04:03:04;;;;;;;13.10;8.03;;;14.90;99.90;;;;;;5111715;28;20829;-75
2022/07/10 04:05:30;;;;;;;15.83;8.50;;;15.00;99.90;;;;;;5116294;28;20875;-75
2022/07/10 04:07:56;;;;;;;17.30;8.50;;;15.00;99.90;;;;;;5100433;28;20919;-75
2022/07/10 04:10:23;;;;;;;15.20;8.10;;;15.00;99.90;;;;;;5106051;28;20687;-75
2022/07/10 04:12:49;;;;;;;15.60;8.70;;;15.10;99.90;;;;;;5101563;28;20539;-76
2022/07/10 04:15:14;;;;;;;15.67;8.30;;;15.10;99.90;;;;;;5113419;28;20911;-76
2022/07/10 04:17:40;;;;;;;13.13;7.37;;;15.10;99.90;;;;;;5118939;28;20264;-76
2022/07/10 04:20:07;;;;;;;12.50;7.80;;;15.10;99.90;;;;;;5118952;27;20179;-76
2022/07/10 04:22:32;;;;;;;14.73;8.60;;;15.10;99.90;;;;;;5118507;27;20222;-75
2022/07/10 04:24:58;;;;;;;11.70;6.30;;;15.10;99.90;;;;;;5137846;27;20409;-76
2022/07/10 04:27:24;;;;;;;12.87;6.93;;;15.10;99.90;;;;;;5142650;27;20175;-75
2022/07/10 04:29:49;;;;;;;11.70;6.90;;;15.10;99.90;;;;;;5142644;27;20176;-75
2022/07/10 04:32:16;;;;;;;12.57;7.13;;;15.20;99.90;;;;;;5151988;27;20195;-76
2022/07/10 04:34:42;;;;;;;14.73;7.40;;;15.20;99.90;;;;;;5138514;27;20226;-77
2022/07/10 04:37:08;;;;;;;10.17;6.07;;;15.20;99.90;;;;;;5136855;27;20412;-76
2022/07/10 04:39:35;;;;;;;10.57;6.90;;;15.20;99.90;;;;;;5166777;27;20405;-76
2022/07/10 04:42:03;;;;;;;13.33;7.53;;;15.20;99.90;;;;;;5148059;27;20442;-76
2022/07/10 04:44:29;;;;;;;9.80;6.23;;;15.30;99.90;;;;;;5145667;27;20476;-76
2022/07/10 04:46:54;;;;;;;13.03;5.63;;;15.20;99.90;;;;;;5145096;27;20845;-76
2022/07/10 04:49:20;;;;;;;12.47;6.97;;;15.20;99.90;;;;;;5131806;27;20517;-76
2022/07/10 04:51:46;;;;;;;12.17;5.47;;;15.30;99.90;;;;;;5119884;27;20196;-76
2022/07/10 04:54:12;;;;;;;9.77;5.30;;;15.30;99.90;;;;;;5139148;27;20215;-76
2022/07/10 04:56:37;;;;;;;7.70;4.17;;;15.20;99.90;;;;;;5128563;27;20256;-76
2022/07/10 04:59:03;;;;;;;7.57;5.03;;;15.10;99.90;;;;;;5118959;28;20174;-76
2022/07/10 05:01:28;;;;;;;7.33;4.60;;;15.10;99.90;;;;;;5118678;27;20183;-76
2022/07/10 05:03:54;;;;;;;5.70;3.83;;;15.10;99.90;;;;;;5105722;27;20183;-76
2022/07/10 05:06:20;;;;;;;7.50;4.27;;;15.10;99.90;;;;;;5114095;27;20175;-75
2022/07/10 05:08:46;;;;;;;8.50;4.60;;;15.10;99.90;;;;;;5125545;27;20180;-76
2022/07/10 05:11:11;;;;;;;6.40;3.50;;;15.00;99.90;;;;;;5118041;27;20207;-75
2022/07/10 05:13:37;;;;;;;7.50;4.70;;;15.00;99.90;;;;;;5130261;27;20625;-75
2022/07/10 05:16:04;;;;;;;6.87;4.23;;;15.00;99.90;;;;;;5135493;27;20179;-75
2022/07/10 05:18:30;;;;;;;5.83;3.30;;;15.00;99.90;;;;;;5127636;27;20194;-75
2022/07/10 05:20:56;;;;;;;7.03;3.90;;;15.00;99.90;;;;;;5122890;27;20413;-75
2022/07/10 05:23:21;;;;;;;8.97;3.23;;;15.00;99.90;;;;;;5118038;27;20184;-75
2022/07/10 05:25:47;;;;;;;18.47;4.70;;;15.00;99.90;;;;;;5118176;27;20263;-75
2022/07/10 05:28:14;;;;;;;10.77;3.90;;;15.00;99.90;;;;;;5114411;27;20670;-75
2022/07/10 05:30:41;;;;;;;6.57;3.10;;;15.10;99.90;;;;;;5114711;28;20172;-75
2022/07/10 05:33:06;;;;;;;6.40;3.27;;;15.10;99.90;;;;;;5115588;28;20449;-75
2022/07/10 05:35:32;;;;;;;6.23;3.30;;;15.10;99.90;;;;;;5114798;27;20417;-76
2022/07/10 05:37:58;;;;;;;4.83;2.50;;;15.20;99.90;;;;;;5114793;28;20188;-75
2022/07/10 05:40:24;;;;;;;7.03;2.67;;;15.10;99.90;;;;;;5115189;27;20829;-75
2022/07/10 05:42:50;;;;;;;4.70;3.13;;;15.10;99.90;;;;;;5114694;28;20207;-75
2022/07/10 05:45:16;;;;;;;5.33;3.00;;;15.10;99.90;;;;;;5109392;28;20184;-75
2022/07/10 05:47:41;;;;;;;6.00;2.93;;;15.00;99.90;;;;;;5106281;28;20736;-75
2022/07/10 05:50:08;;;;;;;4.03;2.90;;;15.00;99.90;;;;;;5114866;28;20421;-75
2022/07/10 05:52:34;;;;;;;4.90;2.70;;;15.00;99.90;;;;;;5106812;27;20287;-75
2022/07/10 05:54:59;;;;;;;3.93;2.50;;;15.10;99.90;;;;;;5110688;27;20544;-75
2022/07/10 05:57:25;;;;;;;4.17;2.60;;;15.20;99.90;;;;;;5103985;28;20184;-75
2022/07/10 05:59:51;;;;;;;4.73;3.10;;;15.30;99.90;;;;;;5108388;28;20235;-75
2022/07/10 06:02:20;;;;;;;7.20;2.27;;;15.30;99.90;;;;;;5096388;28;20590;-75
2022/07/10 06:04:46;;;;;;;3.70;2.27;;;15.40;99.90;;;;;;5105772;28;20538;-75
2022/07/10 06:07:12;;;;;;;5.97;2.40;;;15.50;99.90;;;;;;5109485;27;20433;-75
2022/07/10 06:09:38;;;;;;;4.70;2.10;;;15.60;99.90;;;;;;5118249;27;20421;-75
2022/07/10 06:12:04;;;;;;;3.23;2.20;;;15.60;99.90;;;;;;5104377;27;20464;-74
2022/07/10 06:14:30;;;;;;;12.60;2.23;;;15.70;99.90;;;;;;5094467;28;20176;-75
2022/07/10 06:16:55;;;;;;;3.50;2.13;;;15.80;99.90;;;;;;5105906;28;20275;-75
2022/07/10 06:19:21;;;;;;;3.30;1.80;;;15.90;99.90;;;;;;5107937;28;20216;-75
2022/07/10 06:21:47;;;;;;;3.07;1.70;;;16.00;99.90;;;;;;5095121;28;20208;-75
2022/07/10 06:24:13;;;;;;;5.33;1.70;;;16.00;99.90;;;;;;5107952;28;20183;-75
2022/07/10 06:26:38;;;;;;;3.20;1.73;;;16.00;99.90;;;;;;5101615;28;20191;-75
2022/07/10 06:29:04;;;;;;;3.97;1.33;;;15.80;99.90;;;;;;5101348;28;20187;-75
2022/07/10 06:31:29;;;;;;;3.10;1.10;;;15.70;99.90;;;;;;5099785;28;20195;-74
2022/07/10 06:33:55;;;;;;;2.47;1.23;;;15.70;99.90;;;;;;5112240;28;20618;-74
2022/07/10 06:36:21;;;;;;;2.97;1.27;;;15.80;99.90;;;;;;5111853;28;20529;-75
2022/07/10 06:38:46;;;;;;;5.00;1.10;;;15.70;99.90;;;;;;5110151;28;20708;-75
2022/07/10 06:41:12;;;;;;;3.50;1.37;;;15.70;99.90;;;;;;5109784;28;20180;-75
2022/07/10 06:43:38;;;;;;;2.57;1.27;;;15.70;99.90;;;;;;5094727;28;20204;-75
2022/07/10 06:46:03;;;;;;;2.63;1.40;;;15.80;99.90;;;;;;5094108;28;20192;-75
2022/07/10 06:48:29;;;;;;;8.77;1.90;;;15.90;99.90;;;;;;5094348;28;20187;-75
2022/07/10 06:50:55;;;;;;;9.93;1.97;;;15.90;99.90;;;;;;5113383;28;20237;-75
2022/07/10 06:53:26;;;;;;;7.13;1.43;;;16.00;99.90;;;;;;5108920;28;20182;-75
2022/07/10 06:55:53;;;;;;;1.80;0.97;;;16.10;99.90;;;;;;5103489;27;20173;-75
2022/07/10 06:58:19;;;;;;;2.47;1.40;;;16.10;99.90;;;;;;5119346;27;20799;-75
2022/07/10 07:00:44;;;;;;;2.97;1.73;;;16.10;99.90;;;;;;5097944;28;20451;-75
2022/07/10 07:03:10;;;;;;;3.00;1.57;;;16.00;99.90;;;;;;5094781;28;20574;-75
2022/07/10 07:05:35;;;;;;;4.20;1.80;;;16.00;99.90;;;;;;5106369;28;20224;-75
2022/07/10 07:08:01;;;;;;;4.93;1.80;;;16.00;99.90;;;;;;5110014;28;20258;-75
2022/07/10 07:10:26;;;;;;;4.40;1.37;;;15.90;99.90;;;;;;5102087;27;20173;-75
2022/07/10 07:12:52;;;;;;;4.57;2.03;;;15.80;99.90;;;;;;5110257;28;20195;-75
2022/07/10 07:15:20;;;;;;;3.30;1.27;;;15.80;99.90;;;;;;5108722;28;20168;-75
2022/07/10 07:17:56;;;;;;;2.23;1.30;;;15.90;99.90;;;;;;5095002;28;20192;-74
2022/07/10 07:23:09;;;;;;;3.90;1.20;;;15.90;99.90;;;;;;5091900;28;20428;-74
2022/07/10 07:25:35;;;;;;;2.73;1.40;;;15.90;99.90;;;;;;5094797;28;21082;-74
2022/07/10 07:28:01;;;;;;;4.70;1.47;;;16.00;99.90;;;;;;5091955;28;20238;-75
2022/07/10 07:30:27;;;;;;;3.57;1.30;;;16.10;99.90;;;;;;5094054;28;20191;-75
2022/07/10 07:32:52;;;;;;;3.00;1.40;;;16.20;98.80;;;;;;5093213;28;20601;-74
2022/07/10 07:35:18;;;;;;;5.33;1.03;;;16.20;98.20;;;;;;5100996;28;20167;-74
2022/07/10 07:37:50;;;;;;;4.87;1.47;;;16.20;98.60;;;;;;5098295;28;20176;-74
2022/07/10 07:40:20;;;;;;;3.27;1.43;;;16.20;98.40;;;;;;5092855;28;20173;-74
2022/07/10 07:42:46;;;;;;;2.30;1.30;;;16.30;98.20;;;;;;5091658;28;20450;-74
2022/07/10 07:45:12;;;;;;;2.20;1.07;;;16.20;98.00;;;;;;5106065;28;20446;-75
2022/07/10 07:47:44;;;;;;;3.40;1.20;;;16.50;97.50;;;;;;5100199;28;20823;-75
2022/07/10 07:50:11;;;;;;;2.00;1.10;;;16.60;97.60;;;;;;5108605;28;20432;-75
2022/07/10 07:52:36;;;;;;;2.90;1.37;;;16.60;96.70;;;;;;5097709;28;20469;-75
2022/07/10 07:55:03;;;;;;;2.13;1.17;;;16.60;96.40;;;;;;5101475;27;20446;-75
2022/07/10 07:57:28;;;;;;;3.07;1.23;;;16.70;96.60;;;;;;5128096;27;20183;-75
2022/07/10 07:59:54;;;;;;;5.43;1.53;;;16.80;96.20;;;;;;5102386;28;20917;-75
2022/07/10 08:02:19;;;;;;;3.43;1.30;;;17.00;95.70;;;;;;5097981;27;20180;-75
2022/07/10 08:04:45;;;;;;;1.50;0.70;;;17.90;95.20;;;;;;5107959;28;20256;-75
2022/07/10 08:07:11;;;;;;;2.20;0.90;;;19.30;92.80;;;;;;5102008;27;20184;-76
2022/07/10 08:09:36;;;;;;;5.20;1.57;;;20.50;90.80;;;;;;5111997;27;20239;-75
2022/07/10 08:12:02;;;;;;;6.33;1.20;;;20.50;89.00;;;;;;5107244;28;20530;-75
2022/07/10 08:14:28;;;;;;;8.57;1.40;;;19.80;89.70;;;;;;5092745;28;20206;-76
2022/07/10 08:16:53;;;;;;;2.90;1.30;;;19.70;89.80;;;;;;5100263;28;20247;-76
2022/07/10 08:19:19;;;;;;;3.63;1.20;;;20.20;89.30;;;;;;5104252;28;20498;-76
2022/07/10 08:21:44;;;;;;;3.30;1.57;;;20.40;87.00;;;;;;5111795;28;20691;-76
2022/07/10 08:24:10;;;;;;;3.97;1.57;;;20.50;86.80;;;;;;5101693;28;20584;-76
2022/07/10 08:26:36;;;;;;;2.70;1.40;;;20.20;88.50;;;;;;5097516;28;20630;-76
2022/07/10 08:29:01;;;;;;;2.30;0.83;;;19.70;87.90;;;;;;5112248;28;20537;-77
2022/07/10 08:31:27;;;;;;;5.43;1.20;;;20.20;87.30;;;;;;5096909;28;20204;-76
2022/07/10 08:33:53;;;;;;;7.83;1.63;;;20.90;84.60;;;;;;5104017;28;20176;-78
2022/07/10 08:36:18;;;;;;;3.87;1.30;;;21.40;83.20;;;;;;5097209;28;20176;-75
2022/07/10 08:38:44;;;;;;;3.63;0.70;;;21.20;82.30;;;;;;5105560;28;20172;-76
2022/07/10 08:41:12;;;;;;;3.23;0.97;;;21.60;81.40;;;;;;5090599;28;20187;-76
2022/07/10 08:43:38;;;;;;;2.20;1.00;;;22.00;79.80;;;;;;5091384;28;20413;-76
2022/07/10 08:46:05;;;;;;;2.33;1.13;;;22.60;77.80;;;;;;5094786;28;20414;-76
2022/07/10 08:48:33;;;;;;;5.70;1.50;;;21.70;79.30;;;;;;5102033;28;20237;-76
2022/07/10 08:51:05;;;;;;;2.80;1.07;;;21.70;80.00;;;;;;5118148;28;20428;-75
2022/07/10 08:53:31;;;;;;;1.90;1.07;;;22.00;80.30;;;;;;5132988;28;20415;-76
2022/07/10 08:55:58;;;;;;;8.70;1.10;;;22.20;79.00;;;;;;5108626;27;20524;-76
2022/07/10 08:58:24;;;;;;;11.57;1.77;;;22.60;78.30;;;;;;5090472;28;20432;-76
2022/07/10 09:00:50;;;;;;;5.30;1.70;;;22.50;79.20;;;;;;5095474;28;20420;-76
2022/07/10 09:03:15;;;;;;;9.50;1.60;;;21.90;78.10;;;;;;5098998;28;20409;-75
2022/07/10 09:05:41;;;;;;;2.63;1.20;;;20.80;82.10;;;;;;5102587;28;20458;-76
2022/07/10 09:08:35;;;;;;;8.30;1.20;;;20.60;82.20;;;;;;5099086;28;20233;-76
2022/07/10 09:11:14;;;;;;;2.23;1.07;;;21.30;80.40;;;;;;5098510;27;20181;-76
2022/07/10 09:13:52;;;;;;;2.07;0.80;;;21.50;78.60;;;;;;5094071;28;20432;-76
2022/07/10 09:16:30;;;;;;;3.03;1.23;;;21.70;80.20;;;;;;5096343;28;20408;-76
2022/07/10 09:18:56;;;;;;;4.83;1.57;;;22.40;77.60;;;;;;5094543;28;20421;-76
2022/07/10 09:21:24;;;;;;;3.43;1.27;;;22.60;77.30;;;;;;5099303;28;20449;-76
2022/07/10 09:23:49;;;;;;;2.60;1.13;;;23.00;76.10;;;;;;5103567;28;20470;-76
2022/07/10 09:26:16;;;;;;;4.73;1.30;;;23.30;73.00;;;;;;5100692;27;20413;-76
2022/07/10 09:28:42;;;;;;;6.03;1.23;;;22.50;75.70;;;;;;5108474;28;20183;-76
2022/07/10 09:31:07;;;;;;;1.90;0.77;;;21.70;77.70;;;;;;5106324;28;20417;-76
2022/07/10 09:33:35;;;;;;;5.97;2.13;;;21.00;78.20;;;;;;5119099;27;20176;-75
2022/07/10 09:36:10;;;;;;;3.27;1.30;;;20.20;80.00;;;;;;5102915;28;20183;-75
2022/07/10 09:38:46;;;;;;;2.00;1.03;;;19.90;81.60;;;;;;5110208;28;20417;-75
2022/07/10 09:41:21;;;;;;;2.53;1.07;;;20.50;79.50;;;;;;5102671;28;20402;-76
2022/07/10 09:43:52;;;;;;;3.10;1.00;;;21.10;78.70;;;;;;5099323;28;20408;-76
2022/07/10 09:46:21;;;;;;;2.03;0.80;;;21.40;76.20;;;;;;5102592;28;20787;-76
2022/07/10 09:48:47;;;;;;;3.50;1.00;;;21.30;77.10;;;;;;5109675;28;20416;-76
2022/07/10 09:51:13;;;;;;;4.13;1.43;;;21.20;78.00;;;;;;5114195;28;20431;-76
2022/07/10 09:53:43;;;;;;;1.47;0.70;;;21.50;78.40;;;;;;5114663;28;20413;-76
2022/07/10 09:56:11;;;;;;;4.03;1.43;;;21.70;77.10;;;;;;5113962;27;20181;-76
2022/07/10 09:58:39;;;;;;;3.67;1.10;;;22.00;75.20;;;;;;5103850;27;20410;-76
2022/07/10 10:01:07;;;;;;;1.57;0.73;;;21.40;74.80;;;;;;5093301;28;20432;-75
2022/07/10 10:03:35;;;;;;;5.83;1.70;;;21.20;75.80;;;;;;5102123;28;20426;-76
2022/07/10 10:06:09;;;;;;;3.23;1.10;;;21.50;74.90;;;;;;5099919;28;20412;-76
2022/07/10 10:08:47;;;;;;;2.10;1.10;;;21.10;76.70;;;;;;5115674;27;20420;-76
2022/07/10 10:11:23;;;;;;;1.80;1.00;;;21.20;79.10;;;;;;5113791;27;20884;-76
2022/07/10 10:13:49;;;;;;;3.30;1.07;;;21.50;77.70;;;;;;5096768;28;20550;-76
2022/07/10 10:16:15;;;;;;;4.30;1.50;;;21.70;76.70;;;;;;5106915;28;20871;-76
2022/07/10 10:21:28;;;;;;;4.13;1.63;;;21.20;79.60;;;;;;5107686;28;20191;-76
2022/07/10 10:23:55;;;;;;;1.90;1.00;;;21.00;79.10;;;;;;5102077;28;20438;-76
2022/07/10 10:26:22;;;;;;;4.73;1.20;;;20.70;78.00;;;;;;5107009;28;20456;-76
2022/07/10 10:28:52;;;;;;;2.83;1.10;;;20.50;77.50;;;;;;5104200;28;20419;-76
2022/07/10 10:31:20;;;;;;;1.70;1.00;;;20.50;78.20;;;;;;5098308;28;20421;-76
2022/07/10 10:33:47;;;;;;;4.07;1.67;;;20.50;78.30;;;;;;5113429;28;21092;-76
2022/07/10 10:36:17;;;;;;;3.20;1.10;;;19.50;77.90;;;;;;5107728;28;20411;-76
2022/07/10 10:38:48;;;;;;;2.90;1.20;;;19.50;80.70;;;;;;5105932;28;20448;-76
2022/07/10 10:41:24;;;;;;;4.63;1.77;;;19.60;81.40;;;;;;5103190;28;20414;-76
2022/07/10 10:44:13;;;;;;;3.53;2.00;;;20.00;80.00;;;;;;5093116;28;20438;-75
2022/07/10 10:46:50;;;;;;;2.97;1.30;;;20.30;80.70;;;;;;5083855;28;20417;-76
2022/07/10 10:49:18;;;;;;;4.30;1.30;;;20.50;81.20;;;;;;5108580;28;20444;-76
2022/07/10 10:52:09;;;;;;;1.70;1.03;;;20.70;79.40;;;;;;5113374;28;20469;-76
2022/07/10 10:55:01;;;;;;;3.43;1.10;;;20.60;78.80;;;;;;5121796;27;20429;-76
2022/07/10 10:57:36;;;;;;;1.73;0.73;;;20.60;79.20;;;;;;5103502;27;20438;-76
2022/07/10 11:00:07;;;;;;;3.40;1.20;;;20.40;81.20;;;;;;5092034;28;20418;-75
2022/07/10 11:02:34;;;;;;;2.47;1.03;;;20.50;76.90;;;;;;5108566;28;20533;-76
2022/07/10 11:05:13;;;;;;;1.80;0.80;;;20.40;77.30;;;;;;5102704;28;20502;-76
2022/07/10 11:08:01;;;;;;;3.20;0.93;;;20.30;78.30;;;;;;5106375;28;20496;-76
2022/07/10 11:10:44;;;;;;;3.60;1.17;;;20.40;75.90;;;;;;5093341;28;20434;-75
2022/07/10 11:13:14;;;;;;;1.60;0.80;;;20.60;77.00;;;;;;5096938;28;20525;-76
2022/07/10 11:15:42;;;;;;;3.43;1.67;;;20.70;77.60;;;;;;5112220;28;20429;-76
2022/07/10 11:18:14;;;;;;;1.63;0.97;;;20.70;77.70;;;;;;5092655;28;20442;-76
2022/07/10 11:20:53;;;;;;;7.50;1.40;;;20.80;78.70;;;;;;5104688;28;20414;-76
2022/07/10 11:23:52;;;;;;;5.63;1.20;;;20.80;76.30;;;;;;5105559;28;20414;-76
2022/07/10 11:26:46;;;;;;;2.90;1.47;;;20.60;76.10;;;;;;5093640;28;20423;-76
2022/07/10 11:29:12;;;;;;;2.87;1.10;;;20.50;75.00;;;;;;5094589;28;20951;-76
2022/07/10 11:31:44;;;;;;;2.57;1.23;;;20.70;76.50;;;;;;5090824;28;20461;-75
2022/07/10 11:34:10;;;;;;;1.97;0.97;;;20.40;74.80;;;;;;5091259;28;20271;-75
2022/07/10 11:36:39;;;;;;;6.13;1.67;;;20.40;76.60;;;;;;5100232;28;20430;-75
2022/07/10 11:39:07;;;;;;;2.70;0.97;;;20.70;74.60;;;;;;5101626;28;20417;-75
2022/07/10 11:41:33;;;;;;;20.07;2.07;;;20.80;75.00;;;;;;5094492;28;20423;-75
2022/07/10 11:44:00;;;;;;;2.80;1.20;;;20.80;72.50;;;;;;5092364;28;20422;-75
2022/07/10 11:46:33;;;;;;;1.80;0.80;;;20.80;74.40;;;;;;5105104;28;20460;-75
2022/07/10 11:49:04;;;;;;;9.23;1.50;;;20.60;76.80;;;;;;5100417;28;20437;-75
2022/07/10 11:51:32;;;;;;;5.67;1.10;;;20.50;76.60;;;;;;5100179;28;20469;-75
2022/07/10 11:54:03;;;;;;;5.60;1.40;;;20.40;76.20;;;;;;5106255;28;20418;-75
2022/07/10 11:56:38;;;;;;;2.70;0.90;;;20.30;75.00;;;;;;5091018;28;20445;-75
2022/07/10 11:59:07;;;;;;;1.97;0.90;;;20.40;73.40;;;;;;5104367;28;20422;-75
2022/07/10 12:01:55;;;;;;;6.80;1.10;;;20.40;74.10;;;;;;5096480;28;20557;-75
2022/07/10 12:04:26;;;;;;;1.90;0.90;;;20.20;74.80;;;;;;5103844;28;20522;-75
2022/07/10 12:06:54;;;;;;;2.90;0.80;;;20.40;75.00;;;;;;5096396;28;20951;-75
2022/07/10 12:09:22;;;;;;;14.97;1.17;;;20.40;74.20;;;;;;5100032;28;20413;-75
2022/07/10 12:12:01;;;;;;;4.50;0.80;;;20.00;74.80;;;;;;5100222;28;20500;-75
2022/07/10 12:14:27;;;;;;;1.77;1.03;;;20.10;74.00;;;;;;5103403;28;20427;-75
2022/07/10 12:16:54;;;;;;;1.60;0.77;;;20.20;74.10;;;;;;5093642;28;20438;-75
2022/07/10 12:19:31;;;;;;;5.00;0.80;;;20.50;75.40;;;;;;5097930;28;20426;-75
2022/07/10 12:21:58;;;;;;;5.93;1.40;;;20.80;73.40;;;;;;5097798;28;20517;-75
2022/07/10 12:24:24;;;;;;;3.50;0.90;;;20.60;72.70;;;;;;5096207;28;20498;-75
2022/07/10 12:26:58;;;;;;;1.97;0.87;;;20.70;73.80;;;;;;5097187;28;20778;-75
2022/07/10 12:29:28;;;;;;;1.50;0.70;;;20.70;71.60;;;;;;5095385;28;20414;-75
2022/07/10 12:31:56;;;;;;;14.47;1.23;;;20.70;73.50;;;;;;5102566;28;20477;-75
2022/07/10 12:34:35;;;;;;;6.93;0.80;;;20.70;71.40;;;;;;5105519;28;20455;-75
2022/07/10 12:37:11;;;;;;;2.90;1.00;;;20.80;70.50;;;;;;5096945;28;20422;-75
2022/07/10 12:39:45;;;;;;;2.23;0.87;;;20.80;70.80;;;;;;5102260;28;20451;-75
2022/07/10 12:42:11;;;;;;;1.70;0.83;;;20.80;73.20;;;;;;5107050;28;20405;-75
2022/07/10 12:44:47;;;;;;;3.40;0.90;;;20.80;71.70;;;;;;5101663;28;20421;-76
2022/07/10 12:47:17;;;;;;;2.43;0.80;;;20.80;69.20;;;;;;5108119;28;20218;-76
2022/07/10 12:50:02;;;;;;;3.00;0.90;;;20.60;71.70;;;;;;5105615;28;20420;-75
2022/07/10 12:52:33;;;;;;;5.10;0.97;;;20.80;68.50;;;;;;5115226;28;21013;-75
2022/07/10 12:55:25;;;;;;;6.93;0.87;;;20.90;68.90;;;;;;5127877;27;20423;-75
2022/07/10 12:57:52;;;;;;;2.37;0.73;;;20.80;71.00;;;;;;5098179;28;20429;-74